Time;durP1;ratioP1;P1;durP2;ratioP2;P2;SDS_P1;SDS_P2;PMS_P1;PMS_P2;Temp;Humidity;BMP_temperature;BMP_pressure;BME280_temperature;BME280_humidity;BME280_pressure;Samples;Min_cycle;Max_cycle;Signal;HPM_P1;HPM_P2
2022/03/29 00:01:30;;;;;;;10.20;8.07;;;17.00;35.60;;;;;;5046729;28;20188;-43
2022/03/29 00:03:55;;;;;;;11.67;8.10;;;16.90;35.90;;;;;;5047322;28;20184;-43
2022/03/29 00:06:21;;;;;;;10.73;7.37;;;16.90;35.90;;;;;;5048222;28;20196;-45
2022/03/29 00:08:46;;;;;;;9.40;8.10;;;17.00;35.90;;;;;;5048236;28;20212;-44
2022/03/29 00:11:13;;;;;;;10.23;8.97;;;17.00;35.70;;;;;;5046644;28;20279;-44
2022/03/29 00:13:38;;;;;;;8.93;8.00;;;17.00;35.80;;;;;;5040395;28;20284;-43
2022/03/29 00:16:04;;;;;;;11.17;9.47;;;16.90;35.80;;;;;;5043842;28;20876;-44
2022/03/29 00:18:30;;;;;;;12.10;8.50;;;16.90;36.00;;;;;;5044384;28;20228;-43
2022/03/29 00:20:55;;;;;;;11.87;8.63;;;17.00;35.80;;;;;;5046366;28;20199;-43
2022/03/29 00:23:21;;;;;;;10.43;8.57;;;17.00;35.80;;;;;;5046745;28;20236;-48
2022/03/29 00:25:47;;;;;;;11.30;8.40;;;16.90;36.00;;;;;;5046714;28;20192;-44
2022/03/29 00:28:14;;;;;;;14.20;9.10;;;17.00;36.00;;;;;;5040246;28;20201;-45
2022/03/29 00:30:40;;;;;;;10.20;8.40;;;16.90;36.00;;;;;;5045194;28;20188;-44
2022/03/29 00:33:05;;;;;;;11.47;8.40;;;16.90;36.00;;;;;;5044239;28;20501;-43
2022/03/29 00:35:31;;;;;;;10.00;8.10;;;16.60;36.20;;;;;;5047967;28;20447;-43
2022/03/29 00:37:57;;;;;;;11.27;8.27;;;16.40;36.80;;;;;;5048013;28;20641;-43
2022/03/29 00:40:23;;;;;;;13.00;8.57;;;16.50;36.90;;;;;;5046207;28;20474;-45
2022/03/29 00:42:49;;;;;;;11.60;9.00;;;16.50;36.80;;;;;;5048699;28;20275;-45
2022/03/29 00:45:14;;;;;;;12.10;9.43;;;16.50;36.90;;;;;;5042920;28;20201;-43
2022/03/29 00:47:40;;;;;;;9.93;8.80;;;16.10;37.00;;;;;;5056433;28;20659;-44
2022/03/29 00:50:06;;;;;;;13.57;9.33;;;15.70;38.00;;;;;;5048190;28;20234;-44
2022/03/29 00:52:33;;;;;;;13.37;9.17;;;15.50;38.40;;;;;;5047187;28;20482;-46
2022/03/29 00:55:02;;;;;;;11.50;7.87;;;15.60;38.50;;;;;;5046298;28;20526;-44
2022/03/29 00:57:28;;;;;;;11.43;7.93;;;15.70;38.30;;;;;;5047678;28;20477;-43
2022/03/29 00:59:55;;;;;;;11.33;9.30;;;15.80;38.00;;;;;;5044890;28;20471;-44
2022/03/29 01:02:21;;;;;;;10.63;8.80;;;16.10;37.80;;;;;;5039980;28;20821;-43
2022/03/29 01:04:47;;;;;;;11.20;8.57;;;16.20;37.40;;;;;;5039161;28;20538;-43
2022/03/29 01:07:13;;;;;;;11.50;8.80;;;16.30;37.10;;;;;;5048509;28;20201;-43
2022/03/29 01:09:39;;;;;;;12.57;8.83;;;16.00;37.60;;;;;;5044798;28;20196;-44
2022/03/29 01:12:05;;;;;;;11.40;8.73;;;15.90;37.60;;;;;;5043953;28;20522;-45
2022/03/29 01:14:32;;;;;;;9.77;8.67;;;15.20;38.90;;;;;;5045665;28;20493;-44
2022/03/29 01:19:45;;;;;;;14.00;8.83;;;14.50;41.10;;;;;;5047006;28;20821;-45
2022/03/29 01:22:11;;;;;;;13.93;8.20;;;14.80;41.10;;;;;;5046550;28;20829;-46
2022/03/29 01:24:41;;;;;;;10.13;8.40;;;15.10;40.10;;;;;;5047135;28;20958;-43
2022/03/29 01:27:10;;;;;;;9.73;8.60;;;15.30;39.40;;;;;;5047745;28;20435;-43
2022/03/29 01:29:38;;;;;;;11.50;9.00;;;14.90;39.70;;;;;;5046287;28;20445;-43
2022/03/29 01:32:07;;;;;;;10.20;9.10;;;15.10;39.90;;;;;;5050235;28;20502;-46
2022/03/29 01:34:35;;;;;;;12.13;9.00;;;15.40;39.60;;;;;;5049512;28;20490;-44
2022/03/29 01:37:02;;;;;;;11.93;8.40;;;15.60;38.70;;;;;;5057121;28;20422;-43
2022/03/29 01:39:28;;;;;;;10.13;9.07;;;15.80;38.50;;;;;;5048002;28;20479;-44
2022/03/29 01:41:53;;;;;;;9.17;8.13;;;15.80;38.50;;;;;;5050025;28;20863;-44
2022/03/29 01:44:19;;;;;;;14.00;8.53;;;15.90;38.30;;;;;;5051665;28;20192;-45
2022/03/29 01:46:45;;;;;;;19.60;8.40;;;15.90;38.50;;;;;;5051726;28;20193;-45
2022/03/29 01:49:10;;;;;;;10.63;8.80;;;15.80;38.50;;;;;;5049302;28;20253;-44
2022/03/29 01:51:36;;;;;;;12.77;8.23;;;15.60;38.30;;;;;;5045882;28;20578;-45
2022/03/29 01:54:02;;;;;;;10.47;8.67;;;15.40;39.00;;;;;;5040038;28;20192;-44
2022/03/29 01:56:31;;;;;;;13.30;9.63;;;15.50;38.80;;;;;;5048480;28;20282;-45
2022/03/29 01:58:57;;;;;;;12.63;9.00;;;15.70;39.00;;;;;;5040553;28;20498;-47
2022/03/29 02:01:23;;;;;;;11.40;8.10;;;15.90;38.40;;;;;;5049632;28;20435;-44
2022/03/29 02:03:49;;;;;;;12.73;8.70;;;15.60;38.40;;;;;;5045491;28;20547;-45
2022/03/29 02:06:15;;;;;;;12.33;8.40;;;15.40;38.70;;;;;;5042549;28;20904;-47
2022/03/29 02:08:41;;;;;;;10.17;8.43;;;15.50;38.80;;;;;;5048602;28;20196;-43
2022/03/29 02:11:07;;;;;;;11.73;8.10;;;15.60;38.20;;;;;;5053059;28;20683;-43
2022/03/29 02:13:34;;;;;;;11.87;8.70;;;15.50;38.40;;;;;;5050944;28;21025;-43
2022/03/29 02:15:59;;;;;;;11.13;8.83;;;15.50;38.60;;;;;;5044155;28;20530;-45
2022/03/29 02:18:25;;;;;;;11.47;8.80;;;15.50;38.20;;;;;;5049584;28;20578;-44
2022/03/29 02:20:50;;;;;;;10.70;8.13;;;15.60;38.20;;;;;;5049176;28;20201;-45
2022/03/29 02:23:16;;;;;;;11.37;8.80;;;15.70;38.10;;;;;;5049787;28;20236;-44
2022/03/29 02:25:46;;;;;;;10.10;8.53;;;15.70;38.00;;;;;;5049009;28;20628;-43
2022/03/29 02:28:12;;;;;;;13.73;9.87;;;15.30;38.50;;;;;;5048727;28;20189;-45
2022/03/29 02:30:37;;;;;;;10.00;8.20;;;15.40;38.90;;;;;;5046636;28;20458;-45
2022/03/29 02:33:04;;;;;;;11.53;8.80;;;15.50;38.80;;;;;;5049876;28;20454;-46
2022/03/29 02:35:30;;;;;;;13.20;9.67;;;15.60;38.40;;;;;;5044587;28;20262;-45
2022/03/29 02:37:56;;;;;;;9.60;8.50;;;15.60;38.50;;;;;;5044029;28;20483;-46
2022/03/29 02:40:21;;;;;;;12.60;8.90;;;15.70;38.20;;;;;;5048474;28;20271;-45
2022/03/29 02:42:52;;;;;;;11.13;8.97;;;15.80;37.70;;;;;;5049665;28;20216;-44
2022/03/29 02:45:19;;;;;;;14.93;9.70;;;15.70;37.80;;;;;;5044506;28;20653;-45
2022/03/29 02:47:47;;;;;;;9.37;8.47;;;15.70;37.80;;;;;;5048045;28;20439;-43
2022/03/29 02:50:13;;;;;;;12.40;8.90;;;15.60;38.00;;;;;;5051657;28;20526;-43
2022/03/29 02:52:47;;;;;;;9.83;8.50;;;15.60;38.10;;;;;;5048813;28;20856;-44
2022/03/29 02:55:14;;;;;;;11.97;9.00;;;15.60;38.30;;;;;;5047514;28;20447;-43
2022/03/29 02:57:41;;;;;;;13.90;8.87;;;15.50;38.30;;;;;;5048527;28;20482;-43
2022/03/29 03:00:07;;;;;;;10.47;8.90;;;15.50;38.20;;;;;;5049565;28;20435;-47
2022/03/29 03:02:33;;;;;;;11.90;9.50;;;15.20;38.60;;;;;;5045339;28;20435;-46
2022/03/29 03:04:59;;;;;;;8.70;7.63;;;14.90;39.10;;;;;;5045717;28;20470;-46
2022/03/29 03:07:26;;;;;;;12.03;8.13;;;14.90;39.40;;;;;;5048860;28;20196;-44
2022/03/29 03:09:52;;;;;;;9.33;7.60;;;14.90;39.50;;;;;;5047377;28;20868;-45
2022/03/29 03:12:18;;;;;;;12.53;9.80;;;15.10;39.20;;;;;;5051318;28;20471;-43
2022/03/29 03:14:43;;;;;;;9.43;8.33;;;15.30;38.70;;;;;;5048977;28;20475;-44
2022/03/29 03:17:09;;;;;;;11.00;9.27;;;15.40;38.70;;;;;;5046849;28;20573;-43
2022/03/29 03:19:35;;;;;;;13.73;9.43;;;15.60;38.20;;;;;;5046589;28;20219;-44
2022/03/29 03:22:00;;;;;;;13.07;9.10;;;15.40;38.40;;;;;;5040612;28;20185;-43
2022/03/29 03:24:26;;;;;;;11.90;8.63;;;15.50;38.80;;;;;;5045032;28;20596;-44
2022/03/29 03:26:52;;;;;;;10.57;8.43;;;15.60;38.20;;;;;;5043615;28;20574;-47
2022/03/29 03:29:17;;;;;;;15.40;9.20;;;15.70;37.90;;;;;;5046970;28;20196;-43
2022/03/29 03:31:43;;;;;;;11.17;9.10;;;15.90;37.40;;;;;;5043891;28;20204;-43
2022/03/29 03:34:08;;;;;;;12.77;10.00;;;15.90;37.10;;;;;;5049290;28;20280;-44
2022/03/29 03:36:34;;;;;;;9.67;8.70;;;15.90;37.10;;;;;;5048708;28;20197;-46
2022/03/29 03:38:59;;;;;;;10.10;9.07;;;15.90;37.60;;;;;;5050888;28;20311;-45
2022/03/29 03:41:25;;;;;;;10.20;8.37;;;16.00;37.70;;;;;;5044298;28;20196;-46
2022/03/29 03:43:51;;;;;;;10.90;8.33;;;16.00;37.30;;;;;;5049009;28;20203;-45
2022/03/29 03:46:16;;;;;;;13.03;9.40;;;15.90;37.60;;;;;;5043236;28;20262;-43
2022/03/29 03:48:42;;;;;;;13.23;9.83;;;15.70;37.60;;;;;;5044704;28;20308;-44
2022/03/29 03:51:08;;;;;;;10.07;8.27;;;15.50;37.70;;;;;;5042997;28;20603;-44
2022/03/29 03:53:33;;;;;;;10.10;8.00;;;15.40;38.00;;;;;;5043551;28;20624;-46
2022/03/29 03:55:59;;;;;;;17.13;8.80;;;15.30;38.30;;;;;;5046003;28;20281;-45
2022/03/29 03:58:24;;;;;;;14.63;8.30;;;15.10;38.30;;;;;;5044697;28;20868;-45
2022/03/29 04:00:50;;;;;;;12.20;8.50;;;15.10;38.60;;;;;;5041998;28;20192;-43
2022/03/29 04:03:17;;;;;;;11.00;8.67;;;14.90;39.00;;;;;;5048364;28;20196;-45
2022/03/29 04:05:42;;;;;;;14.67;9.17;;;14.80;39.40;;;;;;5041754;28;20427;-44
2022/03/29 04:08:08;;;;;;;13.47;9.07;;;14.20;40.50;;;;;;5046913;28;20493;-43
2022/03/29 04:10:34;;;;;;;11.33;9.60;;;14.20;41.10;;;;;;5041245;28;20196;-44
2022/03/29 04:13:01;;;;;;;17.70;9.60;;;14.20;41.00;;;;;;5045505;28;20214;-44
2022/03/29 04:15:26;;;;;;;11.63;10.03;;;14.10;41.70;;;;;;5046156;28;20636;-44
2022/03/29 04:17:52;;;;;;;10.77;8.77;;;14.10;41.70;;;;;;5043325;28;20492;-45
2022/03/29 04:20:18;;;;;;;13.60;10.50;;;14.10;41.60;;;;;;5046074;28;20197;-43
2022/03/29 04:22:44;;;;;;;14.00;9.40;;;14.00;41.80;;;;;;5047063;28;20246;-45
2022/03/29 04:25:10;;;;;;;20.20;10.50;;;13.80;42.10;;;;;;5046724;28;20588;-45
2022/03/29 04:27:36;;;;;;;16.33;10.23;;;13.60;42.30;;;;;;5043836;28;20471;-43
2022/03/29 04:30:02;;;;;;;12.20;9.53;;;13.30;42.90;;;;;;5057071;28;20844;-43
2022/03/29 04:32:28;;;;;;;13.20;9.30;;;13.10;43.40;;;;;;5047307;28;20475;-44
2022/03/29 04:34:53;;;;;;;12.87;10.20;;;12.80;44.20;;;;;;5042144;28;20671;-44
2022/03/29 04:37:20;;;;;;;12.73;9.20;;;12.80;44.20;;;;;;5044108;28;20212;-45
2022/03/29 04:39:46;;;;;;;13.97;10.60;;;12.80;44.00;;;;;;5041703;28;20185;-45
2022/03/29 04:42:11;;;;;;;11.90;9.70;;;13.00;43.80;;;;;;5044485;28;20449;-45
2022/03/29 04:44:37;;;;;;;11.93;10.37;;;13.10;43.50;;;;;;5047458;28;20208;-46
2022/03/29 04:47:04;;;;;;;14.93;11.07;;;13.10;43.30;;;;;;5046846;28;20196;-43
2022/03/29 04:49:29;;;;;;;11.80;10.60;;;13.10;43.30;;;;;;5041587;28;20192;-43
2022/03/29 04:51:55;;;;;;;17.73;10.80;;;13.10;43.50;;;;;;5053022;28;20785;-45
2022/03/29 04:54:21;;;;;;;13.00;9.60;;;13.10;43.40;;;;;;5043187;28;20250;-45
2022/03/29 04:56:46;;;;;;;9.77;8.53;;;12.90;43.40;;;;;;5051992;28;20199;-43
2022/03/29 04:59:12;;;;;;;19.60;10.67;;;12.90;43.60;;;;;;5055502;28;20224;-43
2022/03/29 05:01:39;;;;;;;9.13;7.93;;;12.90;43.70;;;;;;5052611;28;20197;-44
2022/03/29 05:04:05;;;;;;;13.80;10.50;;;12.90;43.60;;;;;;5048469;28;20595;-44
2022/03/29 05:06:31;;;;;;;14.47;9.47;;;12.80;43.70;;;;;;5048073;28;20454;-43
2022/03/29 05:08:56;;;;;;;11.03;9.80;;;12.80;43.80;;;;;;5049882;28;20220;-43
2022/03/29 05:11:22;;;;;;;10.90;9.57;;;12.70;43.90;;;;;;5053790;28;20530;-44
2022/03/29 05:13:49;;;;;;;12.17;8.40;;;12.80;44.00;;;;;;5046655;28;20197;-44
2022/03/29 05:16:14;;;;;;;15.33;8.87;;;12.70;44.30;;;;;;5054235;28;20191;-44
2022/03/29 05:18:42;;;;;;;12.23;9.50;;;12.70;45.40;;;;;;5058913;28;20486;-43
2022/03/29 05:21:10;;;;;;;11.17;8.87;;;12.70;45.40;;;;;;5055011;28;20301;-43
2022/03/29 05:23:35;;;;;;;13.83;9.37;;;13.00;45.30;;;;;;5048477;28;21019;-43
2022/03/29 05:26:01;;;;;;;9.87;8.80;;;13.30;44.50;;;;;;5048747;28;20438;-47
2022/03/29 05:28:26;;;;;;;13.37;10.53;;;13.30;44.10;;;;;;5046853;28;20192;-44
2022/03/29 05:30:52;;;;;;;13.53;9.33;;;13.20;43.90;;;;;;5047870;28;20281;-44
2022/03/29 05:33:18;;;;;;;12.97;9.97;;;13.10;44.20;;;;;;5048822;28;20204;-43
2022/03/29 05:35:43;;;;;;;16.17;10.20;;;13.30;44.20;;;;;;5049690;28;20204;-45
2022/03/29 05:38:10;;;;;;;13.90;9.77;;;13.30;43.80;;;;;;5046512;28;20237;-43
2022/03/29 05:40:36;;;;;;;13.93;9.17;;;13.40;43.50;;;;;;5050125;28;20193;-43
2022/03/29 05:43:01;;;;;;;12.07;8.73;;;13.50;43.10;;;;;;5051428;28;20524;-43
2022/03/29 05:45:28;;;;;;;12.90;9.93;;;13.70;43.20;;;;;;5051155;28;20270;-43
2022/03/29 05:50:39;;;;;;;14.93;10.07;;;13.80;42.70;;;;;;5050446;28;20492;-43
2022/03/29 05:53:05;;;;;;;13.03;10.47;;;13.80;42.70;;;;;;5050901;28;20521;-45
2022/03/29 05:55:30;;;;;;;12.80;9.90;;;13.90;42.40;;;;;;5053405;28;20466;-44
2022/03/29 05:57:57;;;;;;;14.50;9.77;;;13.80;42.60;;;;;;5051434;28;20227;-43
2022/03/29 06:00:23;;;;;;;16.33;11.47;;;13.90;42.40;;;;;;5050002;28;20188;-43
2022/03/29 06:02:49;;;;;;;17.30;7.10;;;14.00;42.30;;;;;;5052323;28;20456;-46
2022/03/29 06:05:15;;;;;;;13.00;8.90;;;14.00;43.70;;;;;;5050904;28;20498;-43
2022/03/29 06:07:41;;;;;;;16.17;10.93;;;14.30;43.30;;;;;;5052756;28;20497;-44
2022/03/29 06:10:07;;;;;;;13.17;8.60;;;14.80;41.60;;;;;;5050402;28;20234;-44
2022/03/29 06:12:36;;;;;;;11.53;9.87;;;15.20;40.40;;;;;;5050351;28;20200;-43
2022/03/29 06:15:04;;;;;;;11.63;9.63;;;15.30;39.50;;;;;;5051459;28;20778;-45
2022/03/29 06:17:29;;;;;;;13.47;9.00;;;15.20;39.80;;;;;;5052793;28;20487;-43
2022/03/29 06:19:55;;;;;;;10.87;9.70;;;15.40;39.70;;;;;;5050391;28;20445;-44
2022/03/29 06:22:21;;;;;;;15.50;10.23;;;15.70;39.10;;;;;;5059776;28;20191;-44
2022/03/29 06:24:47;;;;;;;10.60;8.90;;;16.00;38.70;;;;;;5050970;28;20294;-44
2022/03/29 06:27:12;;;;;;;14.83;9.50;;;16.10;38.20;;;;;;5052633;28;20192;-46
2022/03/29 06:29:38;;;;;;;10.90;9.37;;;16.30;38.10;;;;;;5049690;28;20189;-44
2022/03/29 06:32:04;;;;;;;12.37;9.00;;;16.40;37.80;;;;;;5051937;28;20203;-47
2022/03/29 06:34:30;;;;;;;12.33;8.50;;;16.60;37.60;;;;;;5050290;28;20195;-44
2022/03/29 06:36:56;;;;;;;12.30;10.07;;;16.70;37.50;;;;;;5052215;28;20467;-43
2022/03/29 06:39:23;;;;;;;12.80;9.67;;;16.80;37.40;;;;;;5050983;28;20466;-44
2022/03/29 06:41:48;;;;;;;14.00;10.70;;;16.90;37.20;;;;;;5052696;28;20196;-43
2022/03/29 06:44:14;;;;;;;11.50;8.77;;;16.80;37.10;;;;;;5052214;28;20445;-45
2022/03/29 06:46:40;;;;;;;12.33;9.83;;;16.80;37.50;;;;;;5053744;28;20188;-44
2022/03/29 06:49:06;;;;;;;15.87;11.57;;;16.70;37.30;;;;;;5050219;28;20193;-45
2022/03/29 06:51:36;;;;;;;13.67;10.30;;;16.80;37.30;;;;;;5051306;28;20551;-45
2022/03/29 06:54:03;;;;;;;13.43;9.40;;;16.90;37.10;;;;;;5047333;28;20201;-48
2022/03/29 06:56:30;;;;;;;10.13;9.10;;;17.00;36.90;;;;;;5049189;28;21002;-43
2022/03/29 06:58:56;;;;;;;13.57;9.90;;;17.10;36.80;;;;;;5048914;28;20565;-44
2022/03/29 07:01:22;;;;;;;12.97;9.50;;;17.20;36.70;;;;;;5052540;28;20881;-44
2022/03/29 07:03:47;;;;;;;13.90;9.70;;;17.10;36.70;;;;;;5052443;28;20192;-45
2022/03/29 07:06:13;;;;;;;13.57;9.80;;;17.20;36.60;;;;;;5046351;28;20193;-43
2022/03/29 07:11:16;;;;;;;12.70;10.23;;;17.30;36.50;;;;;;5044571;28;20583;-44
2022/03/29 07:11:24;;;;;;;13.50;10.97;;;17.40;36.40;;;;;;5048013;28;20273;-45
2022/03/29 07:13:50;;;;;;;13.83;9.60;;;17.40;36.40;;;;;;5045702;28;20938;-44
2022/03/29 07:16:16;;;;;;;17.20;9.60;;;17.50;36.50;;;;;;5045778;28;20193;-44
2022/03/29 07:18:42;;;;;;;11.33;8.33;;;17.50;36.50;;;;;;5050680;28;20529;-43
2022/03/29 07:21:12;;;;;;;10.90;8.87;;;17.50;37.80;;;;;;5044670;28;20197;-45
2022/03/29 07:23:38;;;;;;;14.87;10.00;;;17.50;37.60;;;;;;5047972;28;20570;-43
2022/03/29 07:26:04;;;;;;;19.53;17.00;;;17.80;36.80;;;;;;5047757;28;20522;-42
2022/03/29 07:28:30;;;;;;;24.00;18.57;;;18.00;36.00;;;;;;5050798;28;20522;-44
2022/03/29 07:30:56;;;;;;;23.10;15.40;;;18.00;35.60;;;;;;5045848;28;20275;-43
2022/03/29 07:33:22;;;;;;;24.33;18.60;;;17.90;37.50;;;;;;5039022;28;20661;-47
2022/03/29 07:35:48;;;;;;;20.67;18.37;;;18.10;36.70;;;;;;5043342;28;20522;-44
2022/03/29 07:38:14;;;;;;;24.70;16.40;;;18.30;36.10;;;;;;5046036;28;20223;-44
2022/03/29 07:40:41;;;;;;;17.70;12.47;;;18.00;37.50;;;;;;5049087;28;20235;-44
2022/03/29 07:43:10;;;;;;;20.07;13.63;;;18.10;36.80;;;;;;5047886;28;20431;-43
2022/03/29 07:45:35;;;;;;;19.63;11.87;;;18.40;36.70;;;;;;5048415;28;20432;-46
2022/03/29 07:48:03;;;;;;;15.17;10.87;;;18.70;35.90;;;;;;5048907;28;20427;-45
2022/03/29 07:50:30;;;;;;;15.63;9.87;;;18.80;35.40;;;;;;5042651;28;20238;-44
2022/03/29 07:52:59;;;;;;;14.10;10.97;;;18.90;35.20;;;;;;5049929;28;20883;-45
2022/03/29 07:55:25;;;;;;;15.40;10.57;;;19.00;35.00;;;;;;5048307;28;20435;-43
2022/03/29 07:57:51;;;;;;;11.17;9.80;;;19.00;34.70;;;;;;5048618;28;20498;-44
2022/03/29 08:00:32;;;;;;;12.80;10.50;;;19.10;34.60;;;;;;5043345;28;20428;-44
2022/03/29 08:03:05;;;;;;;17.57;11.47;;;19.10;34.50;;;;;;5043203;28;20193;-44
2022/03/29 08:05:31;;;;;;;16.57;10.10;;;18.90;34.50;;;;;;5049310;28;20431;-43
2022/03/29 08:07:58;;;;;;;15.47;10.70;;;18.70;35.10;;;;;;5049311;28;20945;-45
2022/03/29 08:10:30;;;;;;;11.53;10.10;;;18.80;35.20;;;;;;5049117;28;20528;-43
2022/03/29 08:13:01;;;;;;;12.97;10.30;;;18.90;35.30;;;;;;5046863;28;20435;-43
2022/03/29 08:15:28;;;;;;;22.00;14.50;;;19.00;35.10;;;;;;5046320;28;20437;-43
2022/03/29 08:17:55;;;;;;;16.27;12.77;;;19.10;35.10;;;;;;5049663;28;20487;-42
2022/03/29 08:20:21;;;;;;;16.80;12.20;;;19.20;34.90;;;;;;5029998;28;20816;-43
2022/03/29 08:22:47;;;;;;;15.57;12.20;;;19.30;34.70;;;;;;5048218;28;20435;-43
2022/03/29 08:25:16;;;;;;;16.73;11.50;;;19.40;34.60;;;;;;5046634;28;20625;-43
2022/03/29 08:27:44;;;;;;;17.87;12.83;;;19.50;34.60;;;;;;5049906;28;20519;-43
2022/03/29 08:30:10;;;;;;;18.20;12.80;;;19.60;34.40;;;;;;5047374;28;20504;-43
2022/03/29 08:32:36;;;;;;;18.67;12.27;;;19.70;34.40;;;;;;5047900;28;20930;-43
2022/03/29 08:35:04;;;;;;;15.13;11.37;;;19.70;34.10;;;;;;5041658;28;20818;-43
2022/03/29 08:37:29;;;;;;;16.93;13.00;;;19.80;33.90;;;;;;5044430;28;20712;-44
2022/03/29 08:39:55;;;;;;;13.50;11.87;;;19.80;33.90;;;;;;5044250;28;20938;-43
2022/03/29 08:42:23;;;;;;;14.33;11.60;;;19.90;33.50;;;;;;5045677;28;20189;-43
2022/03/29 08:44:49;;;;;;;15.73;10.73;;;20.00;33.20;;;;;;5042630;28;20449;-44
2022/03/29 08:47:15;;;;;;;14.87;11.60;;;20.00;32.60;;;;;;5028475;28;20954;-43
2022/03/29 08:49:45;;;;;;;18.43;12.93;;;20.10;32.40;;;;;;5046102;28;20526;-43
2022/03/29 08:52:11;;;;;;;17.07;13.30;;;20.20;32.20;;;;;;5045448;28;20513;-44
2022/03/29 08:54:38;;;;;;;18.13;12.33;;;20.30;32.10;;;;;;5040832;28;20447;-44
2022/03/29 08:57:03;;;;;;;16.57;12.30;;;20.30;32.10;;;;;;5046316;28;20509;-43
2022/03/29 08:59:30;;;;;;;15.13;11.50;;;20.40;32.20;;;;;;5049814;28;20889;-43
2022/03/29 09:01:57;;;;;;;17.47;12.30;;;20.50;32.10;;;;;;5045777;28;20290;-45
2022/03/29 09:04:24;;;;;;;12.63;10.97;;;20.60;32.20;;;;;;5048876;28;20430;-43
2022/03/29 09:06:50;;;;;;;19.13;12.10;;;20.60;31.50;;;;;;5047245;28;20526;-44
2022/03/29 09:09:45;;;;;;;19.17;14.47;;;20.60;31.40;;;;;;5046319;28;20593;-43
2022/03/29 09:12:13;;;;;;;20.07;11.60;;;20.70;31.70;;;;;;5022575;28;20207;-43
2022/03/29 09:14:57;;;;;;;18.43;13.10;;;20.70;31.60;;;;;;5047658;28;20508;-44
2022/03/29 09:17:31;;;;;;;17.37;12.13;;;20.70;31.70;;;;;;5045773;28;20470;-43
2022/03/29 09:19:59;;;;;;;18.67;13.47;;;20.80;32.40;;;;;;5033718;28;20450;-42
2022/03/29 09:22:47;;;;;;;15.60;13.37;;;20.80;32.00;;;;;;5040657;28;20435;-43
2022/03/29 09:25:23;;;;;;;14.20;11.83;;;20.90;31.70;;;;;;5045620;28;20477;-44
2022/03/29 09:27:54;;;;;;;19.73;12.00;;;21.00;31.50;;;;;;5044337;28;20450;-44
2022/03/29 09:30:21;;;;;;;15.33;11.70;;;21.00;31.40;;;;;;5045470;28;20460;-45
2022/03/29 09:32:54;;;;;;;15.70;11.90;;;21.00;31.20;;;;;;5045523;28;20452;-42
2022/03/29 09:35:20;;;;;;;21.60;12.00;;;21.00;30.50;;;;;;5046791;28;20454;-46
2022/03/29 09:37:45;;;;;;;13.77;10.73;;;21.00;30.80;;;;;;5046350;28;21025;-43
2022/03/29 09:40:12;;;;;;;18.50;12.20;;;21.10;31.00;;;;;;5044667;28;20231;-45
2022/03/29 09:42:41;;;;;;;15.80;11.50;;;21.20;31.10;;;;;;5047018;28;20582;-42
2022/03/29 09:45:11;;;;;;;19.03;12.63;;;21.30;31.00;;;;;;5047925;28;20443;-43
2022/03/29 09:47:37;;;;;;;20.20;12.20;;;21.30;30.70;;;;;;5049008;28;20439;-43
2022/03/29 09:50:09;;;;;;;19.27;12.80;;;21.40;30.40;;;;;;5048813;28;20439;-46
2022/03/29 09:52:37;;;;;;;15.13;11.97;;;21.50;30.40;;;;;;5049642;28;20459;-44
2022/03/29 09:55:03;;;;;;;30.87;12.67;;;21.60;30.40;;;;;;5048679;28;20454;-43
2022/03/29 09:57:39;;;;;;;16.97;12.57;;;21.70;30.20;;;;;;5050333;28;20474;-43
2022/03/29 10:00:07;;;;;;;21.57;12.40;;;21.90;29.50;;;;;;5043456;28;20203;-44
2022/03/29 10:02:35;;;;;;;18.27;12.73;;;22.00;29.50;;;;;;5050445;28;20544;-43
2022/03/29 10:05:01;;;;;;;16.83;12.60;;;22.00;29.60;;;;;;5051381;28;20470;-44
2022/03/29 10:07:28;;;;;;;14.73;11.70;;;22.00;29.40;;;;;;5048231;28;20789;-44
2022/03/29 10:09:54;;;;;;;17.37;12.33;;;22.20;29.30;;;;;;5046028;28;20549;-43
2022/03/29 10:12:23;;;;;;;14.03;11.70;;;21.90;28.80;;;;;;5051682;28;20538;-43
2022/03/29 10:14:50;;;;;;;15.47;12.70;;;21.80;29.30;;;;;;5049095;28;20283;-45
2022/03/29 10:17:16;;;;;;;18.23;12.80;;;21.80;29.30;;;;;;5051362;28;20448;-44
2022/03/29 10:19:44;;;;;;;19.03;12.80;;;22.00;29.30;;;;;;5048586;28;20455;-44
2022/03/29 10:22:12;;;;;;;16.50;12.27;;;21.90;29.30;;;;;;5045469;28;20446;-43
2022/03/29 10:24:38;;;;;;;17.20;12.57;;;22.00;29.60;;;;;;5049473;28;20970;-44
2022/03/29 10:27:04;;;;;;;18.53;14.13;;;22.30;29.50;;;;;;5050646;28;20472;-43
2022/03/29 10:29:31;;;;;;;19.93;12.83;;;22.60;29.40;;;;;;5049895;28;20184;-44
2022/03/29 10:32:02;;;;;;;15.17;13.20;;;22.70;29.20;;;;;;5050283;28;20444;-43
2022/03/29 10:34:42;;;;;;;17.47;13.27;;;22.90;28.80;;;;;;5044879;28;20438;-43
2022/03/29 10:37:23;;;;;;;15.87;12.00;;;23.10;28.80;;;;;;5046363;28;20801;-43
2022/03/29 10:40:02;;;;;;;19.67;12.93;;;23.30;28.80;;;;;;5048294;28;20450;-43
2022/03/29 10:42:33;;;;;;;21.40;13.60;;;23.40;28.40;;;;;;5048697;28;20446;-43
2022/03/29 10:45:02;;;;;;;21.83;14.57;;;23.60;28.30;;;;;;5049592;28;20435;-45
2022/03/29 10:47:30;;;;;;;21.07;14.90;;;23.70;28.00;;;;;;5049383;28;20816;-43
2022/03/29 10:49:56;;;;;;;16.57;13.83;;;23.80;28.30;;;;;;5049464;28;20987;-44
2022/03/29 10:52:22;;;;;;;17.67;14.47;;;23.80;28.20;;;;;;5049996;28;20792;-44
2022/03/29 10:54:49;;;;;;;17.60;13.97;;;23.80;28.80;;;;;;5050648;28;20439;-43
2022/03/29 10:57:28;;;;;;;20.07;14.83;;;23.90;28.70;;;;;;5049621;28;20200;-45
2022/03/29 11:00:12;;;;;;;18.97;14.23;;;24.00;27.80;;;;;;5045797;28;20466;-44
2022/03/29 11:02:58;;;;;;;18.30;13.97;;;24.10;27.80;;;;;;5048722;28;20450;-46
2022/03/29 11:05:24;;;;;;;19.77;15.87;;;24.20;28.60;;;;;;5049624;28;20446;-44
2022/03/29 11:07:52;;;;;;;20.80;15.40;;;24.30;27.40;;;;;;5050854;28;20431;-46
2022/03/29 11:10:20;;;;;;;19.30;14.43;;;24.30;27.20;;;;;;5048892;28;20236;-43
2022/03/29 11:12:57;;;;;;;24.43;16.60;;;24.40;27.00;;;;;;5050086;28;20526;-45
2022/03/29 11:15:25;;;;;;;18.63;14.77;;;24.30;27.00;;;;;;5049595;28;20488;-43
2022/03/29 11:17:52;;;;;;;22.97;15.70;;;24.30;27.10;;;;;;5049417;28;20850;-44
2022/03/29 11:20:29;;;;;;;18.57;14.33;;;24.40;27.30;;;;;;5038628;28;20461;-45
2022/03/29 11:22:57;;;;;;;19.53;13.77;;;24.10;28.30;;;;;;5047696;28;20957;-47
2022/03/29 11:25:23;;;;;;;18.30;14.50;;;24.10;28.70;;;;;;5049380;28;20435;-44
2022/03/29 11:27:48;;;;;;;18.00;14.27;;;24.30;28.80;;;;;;5049917;28;21188;-43
2022/03/29 11:30:15;;;;;;;21.63;14.43;;;24.50;28.20;;;;;;5049160;28;20275;-46
2022/03/29 11:32:44;;;;;;;20.70;13.50;;;24.60;27.80;;;;;;5047370;28;20223;-44
2022/03/29 11:35:15;;;;;;;20.97;14.97;;;24.50;27.20;;;;;;5046514;28;21029;-43
2022/03/29 11:37:43;;;;;;;20.57;14.77;;;24.60;27.20;;;;;;5044354;28;20488;-44
2022/03/29 11:40:14;;;;;;;22.33;14.47;;;24.70;26.50;;;;;;5048320;28;20443;-44
2022/03/29 11:42:49;;;;;;;16.73;14.80;;;24.70;26.10;;;;;;5044505;28;20458;-45
2022/03/29 11:45:16;;;;;;;18.27;14.47;;;24.60;26.80;;;;;;5042193;28;20446;-43
2022/03/29 11:48:07;;;;;;;18.20;13.53;;;24.70;26.60;;;;;;5045449;28;20442;-43
2022/03/29 11:50:45;;;;;;;23.43;14.67;;;25.00;26.10;;;;;;5042876;28;20455;-44
2022/03/29 11:53:23;;;;;;;21.70;14.77;;;25.00;25.80;;;;;;5044035;28;20423;-43
2022/03/29 11:56:11;;;;;;;21.00;14.27;;;25.00;26.00;;;;;;5047532;28;21160;-43
2022/03/29 11:58:43;;;;;;;17.53;15.03;;;25.20;25.90;;;;;;5047154;28;20846;-44
2022/03/29 12:01:16;;;;;;;20.87;14.23;;;25.20;25.60;;;;;;5043726;28;20824;-43
2022/03/29 12:03:44;;;;;;;25.93;14.40;;;25.10;25.10;;;;;;5046980;28;20866;-43
2022/03/29 12:06:12;;;;;;;18.40;15.37;;;25.30;25.10;;;;;;5046102;28;20782;-43
2022/03/29 12:08:52;;;;;;;17.13;14.10;;;25.30;25.30;;;;;;5043112;28;20452;-43
2022/03/29 12:11:23;;;;;;;20.87;15.20;;;25.40;25.40;;;;;;5044961;28;20945;-43
2022/03/29 12:14:00;;;;;;;18.67;15.13;;;25.40;25.30;;;;;;5044878;28;20458;-43
2022/03/29 12:16:27;;;;;;;19.60;14.50;;;25.40;25.50;;;;;;5045081;28;20488;-43
2022/03/29 12:18:52;;;;;;;22.83;17.27;;;25.50;25.30;;;;;;5041824;28;20840;-44
2022/03/29 12:21:20;;;;;;;21.47;16.40;;;25.50;25.50;;;;;;5035953;28;20445;-44
2022/03/29 12:23:58;;;;;;;21.93;15.53;;;25.50;24.90;;;;;;5044322;28;20236;-43
2022/03/29 12:26:25;;;;;;;18.50;15.80;;;25.60;25.60;;;;;;5046948;28;20461;-43
2022/03/29 12:28:51;;;;;;;21.40;15.87;;;25.60;25.50;;;;;;5044436;28;20437;-43
2022/03/29 12:31:19;;;;;;;31.97;17.13;;;25.40;26.50;;;;;;5042830;28;20423;-46
2022/03/29 12:33:45;;;;;;;19.07;16.10;;;25.50;26.10;;;;;;5047885;28;20223;-43
2022/03/29 12:36:13;;;;;;;20.80;16.10;;;25.60;26.30;;;;;;5047062;28;20439;-44
2022/03/29 12:38:44;;;;;;;29.53;16.87;;;25.60;26.90;;;;;;5046860;28;20495;-44
2022/03/29 12:41:12;;;;;;;23.43;16.73;;;25.60;27.10;;;;;;5050840;28;20477;-43